sensor_id;sensor_type;location;lat;lon;timestamp;temperature;humidity
31038;DHT22;17702;47.590;7.666;2022-09-02T00:00:16;17.70;80.00
31038;DHT22;17702;47.590;7.666;2022-09-02T00:02:47;17.70;80.30
31038;DHT22;17702;47.590;7.666;2022-09-02T00:05:12;17.70;80.00
31038;DHT22;17702;47.590;7.666;2022-09-02T00:07:38;17.70;79.70
31038;DHT22;17702;47.590;7.666;2022-09-02T00:10:04;17.70;79.70
31038;DHT22;17702;47.590;7.666;2022-09-02T00:12:29;17.70;79.50
31038;DHT22;17702;47.590;7.666;2022-09-02T00:14:55;17.80;79.50
31038;DHT22;17702;47.590;7.666;2022-09-02T00:17:21;17.80;80.10
31038;DHT22;17702;47.590;7.666;2022-09-02T00:19:46;17.80;80.30
31038;DHT22;17702;47.590;7.666;2022-09-02T00:22:12;17.60;80.60
31038;DHT22;17702;47.590;7.666;2022-09-02T00:24:38;17.60;80.70
31038;DHT22;17702;47.590;7.666;2022-09-02T00:27:04;17.70;80.90
31038;DHT22;17702;47.590;7.666;2022-09-02T00:29:30;17.60;81.00
31038;DHT22;17702;47.590;7.666;2022-09-02T00:31:56;17.60;80.40
31038;DHT22;17702;47.590;7.666;2022-09-02T00:34:23;17.60;79.90
31038;DHT22;17702;47.590;7.666;2022-09-02T00:36:48;17.60;79.80
31038;DHT22;17702;47.590;7.666;2022-09-02T00:39:14;17.60;80.10
31038;DHT22;17702;47.590;7.666;2022-09-02T00:41:40;17.60;80.70
31038;DHT22;17702;47.590;7.666;2022-09-02T00:44:10;17.50;81.10
31038;DHT22;17702;47.590;7.666;2022-09-02T00:46:36;17.50;80.10
31038;DHT22;17702;47.590;7.666;2022-09-02T00:51:32;17.40;81.00
31038;DHT22;17702;47.590;7.666;2022-09-02T00:53:59;17.30;80.90
31038;DHT22;17702;47.590;7.666;2022-09-02T00:56:27;17.30;81.40
31038;DHT22;17702;47.590;7.666;2022-09-02T00:58:55;17.30;81.10
31038;DHT22;17702;47.590;7.666;2022-09-02T01:01:21;17.40;81.40
31038;DHT22;17702;47.590;7.666;2022-09-02T01:03:48;17.30;80.70
31038;DHT22;17702;47.590;7.666;2022-09-02T01:06:14;17.30;80.70
31038;DHT22;17702;47.590;7.666;2022-09-02T01:08:43;17.20;81.00
31038;DHT22;17702;47.590;7.666;2022-09-02T01:11:10;17.20;80.90
31038;DHT22;17702;47.590;7.666;2022-09-02T01:13:40;17.20;81.00
31038;DHT22;17702;47.590;7.666;2022-09-02T01:16:27;17.20;80.70
31038;DHT22;17702;47.590;7.666;2022-09-02T01:18:57;17.30;81.10
31038;DHT22;17702;47.590;7.666;2022-09-02T01:21:25;17.20;81.40
31038;DHT22;17702;47.590;7.666;2022-09-02T01:23:51;17.20;81.60
31038;DHT22;17702;47.590;7.666;2022-09-02T01:26:17;17.20;82.00
31038;DHT22;17702;47.590;7.666;2022-09-02T01:28:43;17.30;81.50
31038;DHT22;17702;47.590;7.666;2022-09-02T01:31:09;17.20;81.20
31038;DHT22;17702;47.590;7.666;2022-09-02T01:33:35;17.20;81.20
31038;DHT22;17702;47.590;7.666;2022-09-02T01:36:01;17.30;81.20
31038;DHT22;17702;47.590;7.666;2022-09-02T01:38:29;17.30;80.50
31038;DHT22;17702;47.590;7.666;2022-09-02T01:40:55;17.30;80.60
31038;DHT22;17702;47.590;7.666;2022-09-02T01:43:23;17.20;80.70
31038;DHT22;17702;47.590;7.666;2022-09-02T01:45:51;17.20;80.80
31038;DHT22;17702;47.590;7.666;2022-09-02T01:48:17;17.20;80.80
31038;DHT22;17702;47.590;7.666;2022-09-02T01:50:47;17.20;80.70
31038;DHT22;17702;47.590;7.666;2022-09-02T01:53:13;17.20;80.90
31038;DHT22;17702;47.590;7.666;2022-09-02T01:55:39;17.20;81.10
31038;DHT22;17702;47.590;7.666;2022-09-02T01:58:05;17.30;80.40
31038;DHT22;17702;47.590;7.666;2022-09-02T02:00:30;17.30;80.10
31038;DHT22;17702;47.590;7.666;2022-09-02T02:02:56;17.30;80.30
31038;DHT22;17702;47.590;7.666;2022-09-02T02:05:22;17.30;80.40
31038;DHT22;17702;47.590;7.666;2022-09-02T02:07:47;17.30;80.10
31038;DHT22;17702;47.590;7.666;2022-09-02T02:10:16;17.30;79.70
31038;DHT22;17702;47.590;7.666;2022-09-02T02:12:42;17.30;79.80
31038;DHT22;17702;47.590;7.666;2022-09-02T02:15:11;17.30;79.80
31038;DHT22;17702;47.590;7.666;2022-09-02T02:17:37;17.30;79.90
31038;DHT22;17702;47.590;7.666;2022-09-02T02:20:04;17.30;79.90
31038;DHT22;17702;47.590;7.666;2022-09-02T02:22:30;17.30;80.00
31038;DHT22;17702;47.590;7.666;2022-09-02T02:24:56;17.20;79.50
31038;DHT22;17702;47.590;7.666;2022-09-02T02:27:22;17.20;79.30
31038;DHT22;17702;47.590;7.666;2022-09-02T02:29:48;17.30;79.70
31038;DHT22;17702;47.590;7.666;2022-09-02T02:32:13;17.30;79.60
31038;DHT22;17702;47.590;7.666;2022-09-02T02:34:43;17.30;79.70
31038;DHT22;17702;47.590;7.666;2022-09-02T02:37:08;17.20;79.40
31038;DHT22;17702;47.590;7.666;2022-09-02T02:39:36;17.30;79.90
31038;DHT22;17702;47.590;7.666;2022-09-02T02:42:02;17.30;79.30
31038;DHT22;17702;47.590;7.666;2022-09-02T02:44:28;17.30;79.10
31038;DHT22;17702;47.590;7.666;2022-09-02T02:46:53;17.30;78.50
31038;DHT22;17702;47.590;7.666;2022-09-02T02:49:19;17.40;77.80
31038;DHT22;17702;47.590;7.666;2022-09-02T02:51:46;17.40;78.20
31038;DHT22;17702;47.590;7.666;2022-09-02T02:54:11;17.30;78.10
31038;DHT22;17702;47.590;7.666;2022-09-02T02:56:39;17.30;78.40
31038;DHT22;17702;47.590;7.666;2022-09-02T02:59:04;17.20;78.70
31038;DHT22;17702;47.590;7.666;2022-09-02T03:01:31;17.20;79.00
31038;DHT22;17702;47.590;7.666;2022-09-02T03:03:57;17.20;79.60
31038;DHT22;17702;47.590;7.666;2022-09-02T03:06:23;17.20;79.40
31038;DHT22;17702;47.590;7.666;2022-09-02T03:08:49;17.10;78.30
31038;DHT22;17702;47.590;7.666;2022-09-02T03:11:15;17.10;78.80
31038;DHT22;17702;47.590;7.666;2022-09-02T03:13:43;17.20;77.80
31038;DHT22;17702;47.590;7.666;2022-09-02T03:16:08;17.20;77.90
31038;DHT22;17702;47.590;7.666;2022-09-02T03:18:34;17.30;78.50
31038;DHT22;17702;47.590;7.666;2022-09-02T03:21:00;17.30;78.00
31038;DHT22;17702;47.590;7.666;2022-09-02T03:23:26;17.30;78.20
31038;DHT22;17702;47.590;7.666;2022-09-02T03:25:52;17.30;78.00
31038;DHT22;17702;47.590;7.666;2022-09-02T03:28:18;17.40;77.50
31038;DHT22;17702;47.590;7.666;2022-09-02T03:30:45;17.40;77.90
31038;DHT22;17702;47.590;7.666;2022-09-02T03:33:11;17.30;77.60
31038;DHT22;17702;47.590;7.666;2022-09-02T03:35:39;17.30;77.60
31038;DHT22;17702;47.590;7.666;2022-09-02T03:38:06;17.30;77.50
31038;DHT22;17702;47.590;7.666;2022-09-02T03:40:32;17.30;77.00
31038;DHT22;17702;47.590;7.666;2022-09-02T03:42:57;17.30;76.70
31038;DHT22;17702;47.590;7.666;2022-09-02T03:45:23;17.30;77.30
31038;DHT22;17702;47.590;7.666;2022-09-02T03:47:49;17.30;77.00
31038;DHT22;17702;47.590;7.666;2022-09-02T03:50:23;17.30;77.00
31038;DHT22;17702;47.590;7.666;2022-09-02T03:52:50;17.30;77.20
31038;DHT22;17702;47.590;7.666;2022-09-02T03:55:16;17.20;77.10
31038;DHT22;17702;47.590;7.666;2022-09-02T03:57:43;17.20;76.90
31038;DHT22;17702;47.590;7.666;2022-09-02T04:00:11;17.30;77.70
31038;DHT22;17702;47.590;7.666;2022-09-02T04:02:37;17.30;76.90
31038;DHT22;17702;47.590;7.666;2022-09-02T04:05:03;17.30;77.40
31038;DHT22;17702;47.590;7.666;2022-09-02T04:07:30;17.40;77.30
31038;DHT22;17702;47.590;7.666;2022-09-02T04:09:56;17.40;76.30
31038;DHT22;17702;47.590;7.666;2022-09-02T04:12:22;17.40;76.50
31038;DHT22;17702;47.590;7.666;2022-09-02T04:14:48;17.30;76.50
31038;DHT22;17702;47.590;7.666;2022-09-02T04:17:13;17.40;76.70
31038;DHT22;17702;47.590;7.666;2022-09-02T04:19:39;17.30;76.00
31038;DHT22;17702;47.590;7.666;2022-09-02T04:22:06;17.30;77.10
31038;DHT22;17702;47.590;7.666;2022-09-02T04:24:32;17.30;76.50
31038;DHT22;17702;47.590;7.666;2022-09-02T04:26:58;17.30;77.40
31038;DHT22;17702;47.590;7.666;2022-09-02T04:29:23;17.20;76.40
31038;DHT22;17702;47.590;7.666;2022-09-02T04:31:50;17.20;76.60
31038;DHT22;17702;47.590;7.666;2022-09-02T04:34:16;17.30;76.50
31038;DHT22;17702;47.590;7.666;2022-09-02T04:36:42;17.30;76.00
31038;DHT22;17702;47.590;7.666;2022-09-02T04:39:07;17.30;76.60
31038;DHT22;17702;47.590;7.666;2022-09-02T04:41:34;17.20;76.90
31038;DHT22;17702;47.590;7.666;2022-09-02T04:44:01;17.30;76.10
31038;DHT22;17702;47.590;7.666;2022-09-02T04:46:27;17.30;75.90
31038;DHT22;17702;47.590;7.666;2022-09-02T04:48:53;17.30;75.70
31038;DHT22;17702;47.590;7.666;2022-09-02T04:51:21;17.30;75.50
31038;DHT22;17702;47.590;7.666;2022-09-02T04:53:48;17.20;75.80
31038;DHT22;17702;47.590;7.666;2022-09-02T04:56:18;17.20;75.60
31038;DHT22;17702;47.590;7.666;2022-09-02T04:58:45;17.30;75.60
31038;DHT22;17702;47.590;7.666;2022-09-02T05:01:15;17.20;76.00
31038;DHT22;17702;47.590;7.666;2022-09-02T05:03:42;17.20;75.60
31038;DHT22;17702;47.590;7.666;2022-09-02T05:06:11;17.20;75.40
31038;DHT22;17702;47.590;7.666;2022-09-02T05:08:38;17.10;75.80
31038;DHT22;17702;47.590;7.666;2022-09-02T05:11:07;17.20;75.70
31038;DHT22;17702;47.590;7.666;2022-09-02T05:13:32;17.20;75.20
31038;DHT22;17702;47.590;7.666;2022-09-02T05:15:58;17.20;74.80
31038;DHT22;17702;47.590;7.666;2022-09-02T05:18:24;17.20;75.70
31038;DHT22;17702;47.590;7.666;2022-09-02T05:20:50;17.20;75.10
31038;DHT22;17702;47.590;7.666;2022-09-02T05:23:16;17.20;75.40
31038;DHT22;17702;47.590;7.666;2022-09-02T05:25:41;17.20;75.20
31038;DHT22;17702;47.590;7.666;2022-09-02T05:28:08;17.20;74.70
31038;DHT22;17702;47.590;7.666;2022-09-02T05:30:39;17.20;75.50
31038;DHT22;17702;47.590;7.666;2022-09-02T05:33:05;17.20;75.00
31038;DHT22;17702;47.590;7.666;2022-09-02T05:35:31;17.30;76.10
31038;DHT22;17702;47.590;7.666;2022-09-02T05:37:57;17.30;75.40
31038;DHT22;17702;47.590;7.666;2022-09-02T05:40:23;17.30;75.10
31038;DHT22;17702;47.590;7.666;2022-09-02T05:42:49;17.30;75.90
31038;DHT22;17702;47.590;7.666;2022-09-02T05:45:14;17.30;75.00
31038;DHT22;17702;47.590;7.666;2022-09-02T05:47:40;17.30;75.20
31038;DHT22;17702;47.590;7.666;2022-09-02T05:50:06;17.30;75.10
31038;DHT22;17702;47.590;7.666;2022-09-02T05:52:32;17.30;75.30
31038;DHT22;17702;47.590;7.666;2022-09-02T05:54:58;17.20;75.50
31038;DHT22;17702;47.590;7.666;2022-09-02T05:57:24;17.20;75.70
31038;DHT22;17702;47.590;7.666;2022-09-02T05:59:50;17.20;76.30
31038;DHT22;17702;47.590;7.666;2022-09-02T06:02:22;17.30;76.20
31038;DHT22;17702;47.590;7.666;2022-09-02T06:04:50;17.20;76.00
31038;DHT22;17702;47.590;7.666;2022-09-02T06:07:19;17.20;76.30
31038;DHT22;17702;47.590;7.666;2022-09-02T06:09:47;17.20;76.10
31038;DHT22;17702;47.590;7.666;2022-09-02T06:12:15;17.30;76.20
31038;DHT22;17702;47.590;7.666;2022-09-02T06:14:41;17.20;75.30
31038;DHT22;17702;47.590;7.666;2022-09-02T06:17:07;17.30;76.40
31038;DHT22;17702;47.590;7.666;2022-09-02T06:19:33;17.30;74.50
31038;DHT22;17702;47.590;7.666;2022-09-02T06:22:00;17.30;76.00
31038;DHT22;17702;47.590;7.666;2022-09-02T06:24:28;17.40;73.80
31038;DHT22;17702;47.590;7.666;2022-09-02T06:26:54;17.40;75.20
31038;DHT22;17702;47.590;7.666;2022-09-02T06:29:21;17.50;75.30
31038;DHT22;17702;47.590;7.666;2022-09-02T06:31:48;17.50;74.20
31038;DHT22;17702;47.590;7.666;2022-09-02T06:34:16;17.60;74.00
31038;DHT22;17702;47.590;7.666;2022-09-02T06:36:43;17.60;75.20
31038;DHT22;17702;47.590;7.666;2022-09-02T06:39:12;17.70;74.00
31038;DHT22;17702;47.590;7.666;2022-09-02T06:41:40;17.80;74.40
31038;DHT22;17702;47.590;7.666;2022-09-02T06:44:08;17.90;72.70
31038;DHT22;17702;47.590;7.666;2022-09-02T06:46:37;17.90;73.30
31038;DHT22;17702;47.590;7.666;2022-09-02T06:49:04;18.00;70.30
31038;DHT22;17702;47.590;7.666;2022-09-02T06:51:34;18.20;70.80
31038;DHT22;17702;47.590;7.666;2022-09-02T06:54:01;18.30;71.80
31038;DHT22;17702;47.590;7.666;2022-09-02T06:56:27;18.30;71.90
31038;DHT22;17702;47.590;7.666;2022-09-02T06:58:53;18.40;69.00
31038;DHT22;17702;47.590;7.666;2022-09-02T07:01:23;18.60;69.50
31038;DHT22;17702;47.590;7.666;2022-09-02T07:03:48;18.70;69.60
31038;DHT22;17702;47.590;7.666;2022-09-02T07:06:46;18.80;69.10
31038;DHT22;17702;47.590;7.666;2022-09-02T07:09:15;18.90;69.10
31038;DHT22;17702;47.590;7.666;2022-09-02T07:11:40;19.10;67.40
31038;DHT22;17702;47.590;7.666;2022-09-02T07:14:07;19.20;67.20
31038;DHT22;17702;47.590;7.666;2022-09-02T07:16:36;19.40;66.60
31038;DHT22;17702;47.590;7.666;2022-09-02T07:19:02;19.40;65.80
31038;DHT22;17702;47.590;7.666;2022-09-02T07:21:29;19.50;66.00
31038;DHT22;17702;47.590;7.666;2022-09-02T07:23:57;19.60;66.30
31038;DHT22;17702;47.590;7.666;2022-09-02T07:26:25;19.80;66.10
31038;DHT22;17702;47.590;7.666;2022-09-02T07:28:50;19.90;64.40
31038;DHT22;17702;47.590;7.666;2022-09-02T07:31:16;20.00;63.90
31038;DHT22;17702;47.590;7.666;2022-09-02T07:33:42;20.00;65.30
31038;DHT22;17702;47.590;7.666;2022-09-02T07:36:10;20.10;64.30
31038;DHT22;17702;47.590;7.666;2022-09-02T07:38:38;20.20;65.70
31038;DHT22;17702;47.590;7.666;2022-09-02T07:41:05;20.50;66.00
31038;DHT22;17702;47.590;7.666;2022-09-02T07:43:32;20.70;65.80
31038;DHT22;17702;47.590;7.666;2022-09-02T07:45:58;20.90;63.30
31038;DHT22;17702;47.590;7.666;2022-09-02T07:48:26;21.00;62.60
31038;DHT22;17702;47.590;7.666;2022-09-02T07:50:52;21.10;62.00
31038;DHT22;17702;47.590;7.666;2022-09-02T07:53:18;21.20;63.60
31038;DHT22;17702;47.590;7.666;2022-09-02T07:55:44;21.30;62.30
31038;DHT22;17702;47.590;7.666;2022-09-02T07:58:11;21.40;61.70
31038;DHT22;17702;47.590;7.666;2022-09-02T08:00:37;21.50;61.30
31038;DHT22;17702;47.590;7.666;2022-09-02T08:03:04;21.70;62.00
31038;DHT22;17702;47.590;7.666;2022-09-02T08:05:31;21.80;59.50
31038;DHT22;17702;47.590;7.666;2022-09-02T08:07:57;21.90;60.70
31038;DHT22;17702;47.590;7.666;2022-09-02T08:10:23;22.10;60.10
31038;DHT22;17702;47.590;7.666;2022-09-02T08:12:51;22.20;60.00
31038;DHT22;17702;47.590;7.666;2022-09-02T08:15:17;22.30;62.00
31038;DHT22;17702;47.590;7.666;2022-09-02T08:17:45;22.40;60.00
31038;DHT22;17702;47.590;7.666;2022-09-02T08:20:12;22.40;59.40
31038;DHT22;17702;47.590;7.666;2022-09-02T08:22:39;22.60;58.70
31038;DHT22;17702;47.590;7.666;2022-09-02T08:25:05;22.60;58.30
31038;DHT22;17702;47.590;7.666;2022-09-02T08:27:32;22.60;59.00
31038;DHT22;17702;47.590;7.666;2022-09-02T08:29:58;22.70;58.50
31038;DHT22;17702;47.590;7.666;2022-09-02T08:32:24;22.70;58.80
31038;DHT22;17702;47.590;7.666;2022-09-02T08:34:49;22.70;58.70
31038;DHT22;17702;47.590;7.666;2022-09-02T08:37:15;22.70;57.90
31038;DHT22;17702;47.590;7.666;2022-09-02T08:39:44;22.70;59.10
31038;DHT22;17702;47.590;7.666;2022-09-02T08:42:46;22.90;58.50
31038;DHT22;17702;47.590;7.666;2022-09-02T08:48:06;23.20;58.40
31038;DHT22;17702;47.590;7.666;2022-09-02T08:50:36;23.30;59.00
31038;DHT22;17702;47.590;7.666;2022-09-02T08:55:50;23.60;57.10
31038;DHT22;17702;47.590;7.666;2022-09-02T08:58:16;23.50;56.00
31038;DHT22;17702;47.590;7.666;2022-09-02T09:00:47;23.40;56.80
31038;DHT22;17702;47.590;7.666;2022-09-02T09:06:17;23.50;56.50
31038;DHT22;17702;47.590;7.666;2022-09-02T09:08:59;23.60;55.90
31038;DHT22;17702;47.590;7.666;2022-09-02T09:11:43;23.70;56.90
31038;DHT22;17702;47.590;7.666;2022-09-02T09:17:05;24.00;57.30
31038;DHT22;17702;47.590;7.666;2022-09-02T09:22:02;24.30;56.10
31038;DHT22;17702;47.590;7.666;2022-09-02T09:24:35;24.50;55.40
31038;DHT22;17702;47.590;7.666;2022-09-02T09:27:10;24.60;54.70
31038;DHT22;17702;47.590;7.666;2022-09-02T09:29:37;24.70;53.90
31038;DHT22;17702;47.590;7.666;2022-09-02T09:32:05;24.80;55.40
31038;DHT22;17702;47.590;7.666;2022-09-02T09:39:52;25.30;55.00
31038;DHT22;17702;47.590;7.666;2022-09-02T09:42:33;25.30;55.30
31038;DHT22;17702;47.590;7.666;2022-09-02T09:44:59;25.50;53.10
31038;DHT22;17702;47.590;7.666;2022-09-02T09:47:25;25.60;54.10
31038;DHT22;17702;47.590;7.666;2022-09-02T09:49:51;25.70;52.30
31038;DHT22;17702;47.590;7.666;2022-09-02T09:52:36;25.90;53.60
31038;DHT22;17702;47.590;7.666;2022-09-02T09:57:41;26.00;53.30
31038;DHT22;17702;47.590;7.666;2022-09-02T10:00:30;26.10;53.50
31038;DHT22;17702;47.590;7.666;2022-09-02T10:03:03;26.20;51.90
31038;DHT22;17702;47.590;7.666;2022-09-02T10:05:38;26.30;51.90
31038;DHT22;17702;47.590;7.666;2022-09-02T10:08:26;26.40;51.70
31038;DHT22;17702;47.590;7.666;2022-09-02T10:13:28;26.50;51.40
31038;DHT22;17702;47.590;7.666;2022-09-02T10:18:51;26.50;51.50
31038;DHT22;17702;47.590;7.666;2022-09-02T10:24:09;26.80;52.60
31038;DHT22;17702;47.590;7.666;2022-09-02T10:26:46;26.90;52.80
31038;DHT22;17702;47.590;7.666;2022-09-02T10:35:08;27.10;51.70
31038;DHT22;17702;47.590;7.666;2022-09-02T10:40:18;27.20;51.50
31038;DHT22;17702;47.590;7.666;2022-09-02T10:45:45;27.40;49.80
31038;DHT22;17702;47.590;7.666;2022-09-02T10:51:18;27.50;50.90
31038;DHT22;17702;47.590;7.666;2022-09-02T10:54:03;27.50;52.80
31038;DHT22;17702;47.590;7.666;2022-09-02T10:56:42;27.60;51.90
31038;DHT22;17702;47.590;7.666;2022-09-02T11:02:20;27.60;49.30
31038;DHT22;17702;47.590;7.666;2022-09-02T11:04:54;27.50;51.80
31038;DHT22;17702;47.590;7.666;2022-09-02T11:07:42;27.50;51.30
31038;DHT22;17702;47.590;7.666;2022-09-02T11:10:24;27.60;50.30
31038;DHT22;17702;47.590;7.666;2022-09-02T11:13:05;27.70;50.10
31038;DHT22;17702;47.590;7.666;2022-09-02T11:20:55;27.60;50.70
31038;DHT22;17702;47.590;7.666;2022-09-02T11:23:49;27.60;50.80
31038;DHT22;17702;47.590;7.666;2022-09-02T11:26:20;27.60;49.90
31038;DHT22;17702;47.590;7.666;2022-09-02T11:29:03;27.50;50.00
31038;DHT22;17702;47.590;7.666;2022-09-02T11:31:37;27.50;51.10
31038;DHT22;17702;47.590;7.666;2022-09-02T11:34:20;27.50;50.30
31038;DHT22;17702;47.590;7.666;2022-09-02T11:36:49;27.30;48.50
31038;DHT22;17702;47.590;7.666;2022-09-02T11:39:31;27.20;49.70
31038;DHT22;17702;47.590;7.666;2022-09-02T11:53:48;27.10;50.10
31038;DHT22;17702;47.590;7.666;2022-09-02T11:56:18;27.10;51.40
31038;DHT22;17702;47.590;7.666;2022-09-02T11:58:45;27.20;53.20
31038;DHT22;17702;47.590;7.666;2022-09-02T12:03:45;27.20;51.10
31038;DHT22;17702;47.590;7.666;2022-09-02T12:06:16;27.30;49.60
31038;DHT22;17702;47.590;7.666;2022-09-02T12:14:01;27.60;50.00
31038;DHT22;17702;47.590;7.666;2022-09-02T12:21:32;27.70;48.70
31038;DHT22;17702;47.590;7.666;2022-09-02T12:26:29;27.80;48.60
31038;DHT22;17702;47.590;7.666;2022-09-02T12:31:50;27.90;48.80
31038;DHT22;17702;47.590;7.666;2022-09-02T12:36:47;28.10;48.40
31038;DHT22;17702;47.590;7.666;2022-09-02T12:49:52;27.80;49.90
31038;DHT22;17702;47.590;7.666;2022-09-02T12:52:43;27.80;48.00
31038;DHT22;17702;47.590;7.666;2022-09-02T12:55:23;27.90;49.60
31038;DHT22;17702;47.590;7.666;2022-09-02T12:57:51;27.90;50.30
31038;DHT22;17702;47.590;7.666;2022-09-02T13:19:53;27.80;48.20
31038;DHT22;17702;47.590;7.666;2022-09-02T13:33:37;27.20;48.10
31038;DHT22;17702;47.590;7.666;2022-09-02T13:36:03;27.30;48.50
31038;DHT22;17702;47.590;7.666;2022-09-02T13:38:29;27.20;48.70
31038;DHT22;17702;47.590;7.666;2022-09-02T13:40:56;27.10;49.00
31038;DHT22;17702;47.590;7.666;2022-09-02T13:43:23;27.00;49.80
31038;DHT22;17702;47.590;7.666;2022-09-02T13:45:52;26.90;49.30
31038;DHT22;17702;47.590;7.666;2022-09-02T13:48:24;26.90;49.90
31038;DHT22;17702;47.590;7.666;2022-09-02T13:50:55;26.90;49.60
31038;DHT22;17702;47.590;7.666;2022-09-02T13:55:55;26.80;52.90
31038;DHT22;17702;47.590;7.666;2022-09-02T14:00:52;27.10;54.10
31038;DHT22;17702;47.590;7.666;2022-09-02T14:03:19;27.20;50.70
31038;DHT22;17702;47.590;7.666;2022-09-02T14:05:56;27.10;50.10
31038;DHT22;17702;47.590;7.666;2022-09-02T14:08:24;27.00;47.40
31038;DHT22;17702;47.590;7.666;2022-09-02T14:10:51;26.90;47.80
31038;DHT22;17702;47.590;7.666;2022-09-02T14:13:19;26.80;49.20
31038;DHT22;17702;47.590;7.666;2022-09-02T14:15:45;26.70;53.20
31038;DHT22;17702;47.590;7.666;2022-09-02T14:18:19;26.60;52.00
31038;DHT22;17702;47.590;7.666;2022-09-02T14:23:20;26.20;55.20
31038;DHT22;17702;47.590;7.666;2022-09-02T14:26:04;26.10;55.80
31038;DHT22;17702;47.590;7.666;2022-09-02T14:28:33;26.00;62.10
31038;DHT22;17702;47.590;7.666;2022-09-02T14:31:07;25.80;61.00
31038;DHT22;17702;47.590;7.666;2022-09-02T14:33:41;25.70;63.50
31038;DHT22;17702;47.590;7.666;2022-09-02T14:41:22;25.50;61.00
31038;DHT22;17702;47.590;7.666;2022-09-02T14:43:53;25.40;62.00
31038;DHT22;17702;47.590;7.666;2022-09-02T14:48:52;25.20;64.50
31038;DHT22;17702;47.590;7.666;2022-09-02T14:51:19;25.10;64.90
31038;DHT22;17702;47.590;7.666;2022-09-02T14:53:44;25.10;66.20
31038;DHT22;17702;47.590;7.666;2022-09-02T14:56:10;24.90;65.30
31038;DHT22;17702;47.590;7.666;2022-09-02T14:58:35;24.80;64.40
31038;DHT22;17702;47.590;7.666;2022-09-02T15:01:01;24.70;65.50
31038;DHT22;17702;47.590;7.666;2022-09-02T15:03:29;24.70;65.90
31038;DHT22;17702;47.590;7.666;2022-09-02T15:05:54;24.60;66.90
31038;DHT22;17702;47.590;7.666;2022-09-02T15:08:21;24.40;66.90
31038;DHT22;17702;47.590;7.666;2022-09-02T15:10:47;24.40;67.60
31038;DHT22;17702;47.590;7.666;2022-09-02T15:13:20;24.30;67.70
31038;DHT22;17702;47.590;7.666;2022-09-02T15:15:47;24.10;54.60
31038;DHT22;17702;47.590;7.666;2022-09-02T15:18:15;23.90;56.20
31038;DHT22;17702;47.590;7.666;2022-09-02T15:20:41;23.70;58.70
31038;DHT22;17702;47.590;7.666;2022-09-02T15:23:06;23.50;63.20
31038;DHT22;17702;47.590;7.666;2022-09-02T15:25:32;23.10;72.00
31038;DHT22;17702;47.590;7.666;2022-09-02T15:27:59;22.70;77.20
31038;DHT22;17702;47.590;7.666;2022-09-02T15:30:25;22.10;81.30
31038;DHT22;17702;47.590;7.666;2022-09-02T15:32:50;21.80;81.40
31038;DHT22;17702;47.590;7.666;2022-09-02T15:35:16;21.40;84.30
31038;DHT22;17702;47.590;7.666;2022-09-02T15:37:42;21.20;86.60
31038;DHT22;17702;47.590;7.666;2022-09-02T15:40:08;21.10;85.90
31038;DHT22;17702;47.590;7.666;2022-09-02T15:42:34;20.90;85.40
31038;DHT22;17702;47.590;7.666;2022-09-02T15:45:01;20.80;85.60
31038;DHT22;17702;47.590;7.666;2022-09-02T15:47:28;20.80;88.00
31038;DHT22;17702;47.590;7.666;2022-09-02T15:49:55;20.70;87.60
31038;DHT22;17702;47.590;7.666;2022-09-02T15:52:22;20.60;88.20
31038;DHT22;17702;47.590;7.666;2022-09-02T15:54:48;20.50;88.50
31038;DHT22;17702;47.590;7.666;2022-09-02T15:57:13;20.50;89.10
31038;DHT22;17702;47.590;7.666;2022-09-02T15:59:39;20.50;88.10
31038;DHT22;17702;47.590;7.666;2022-09-02T16:02:06;20.50;88.60
31038;DHT22;17702;47.590;7.666;2022-09-02T16:04:31;20.40;88.80
31038;DHT22;17702;47.590;7.666;2022-09-02T16:06:57;20.40;89.80
31038;DHT22;17702;47.590;7.666;2022-09-02T16:09:23;20.40;89.60
31038;DHT22;17702;47.590;7.666;2022-09-02T16:11:50;20.40;89.40
31038;DHT22;17702;47.590;7.666;2022-09-02T16:14:17;20.30;89.40
31038;DHT22;17702;47.590;7.666;2022-09-02T16:16:44;20.30;89.10
31038;DHT22;17702;47.590;7.666;2022-09-02T16:19:10;20.20;89.70
31038;DHT22;17702;47.590;7.666;2022-09-02T16:21:36;20.20;90.50
31038;DHT22;17702;47.590;7.666;2022-09-02T16:24:04;20.20;90.20
31038;DHT22;17702;47.590;7.666;2022-09-02T16:26:32;20.10;90.40
31038;DHT22;17702;47.590;7.666;2022-09-02T16:29:03;20.10;90.50
31038;DHT22;17702;47.590;7.666;2022-09-02T16:31:31;20.20;90.50
31038;DHT22;17702;47.590;7.666;2022-09-02T16:36:30;20.20;90.80
31038;DHT22;17702;47.590;7.666;2022-09-02T16:38:56;20.20;90.70
31038;DHT22;17702;47.590;7.666;2022-09-02T16:41:33;20.20;91.10
31038;DHT22;17702;47.590;7.666;2022-09-02T16:44:01;20.20;90.60
31038;DHT22;17702;47.590;7.666;2022-09-02T16:46:28;20.20;90.00
31038;DHT22;17702;47.590;7.666;2022-09-02T16:48:55;20.20;89.80
31038;DHT22;17702;47.590;7.666;2022-09-02T16:51:24;20.10;89.80
31038;DHT22;17702;47.590;7.666;2022-09-02T16:53:54;20.10;90.50
31038;DHT22;17702;47.590;7.666;2022-09-02T16:56:21;20.10;90.60
31038;DHT22;17702;47.590;7.666;2022-09-02T16:58:48;20.10;90.90
31038;DHT22;17702;47.590;7.666;2022-09-02T17:01:14;20.10;90.70
31038;DHT22;17702;47.590;7.666;2022-09-02T17:03:40;20.10;90.60
31038;DHT22;17702;47.590;7.666;2022-09-02T17:06:06;20.10;90.00
31038;DHT22;17702;47.590;7.666;2022-09-02T17:08:33;20.10;90.50
31038;DHT22;17702;47.590;7.666;2022-09-02T17:16:26;20.10;90.20
31038;DHT22;17702;47.590;7.666;2022-09-02T17:18:52;20.00;90.30
31038;DHT22;17702;47.590;7.666;2022-09-02T17:24:00;19.90;90.70
31038;DHT22;17702;47.590;7.666;2022-09-02T17:26:27;19.90;90.60
31038;DHT22;17702;47.590;7.666;2022-09-02T17:28:54;19.90;91.10
31038;DHT22;17702;47.590;7.666;2022-09-02T17:31:30;19.80;90.50
31038;DHT22;17702;47.590;7.666;2022-09-02T17:33:58;19.80;90.20
31038;DHT22;17702;47.590;7.666;2022-09-02T17:36:25;19.80;91.10
31038;DHT22;17702;47.590;7.666;2022-09-02T17:41:28;19.70;90.80
31038;DHT22;17702;47.590;7.666;2022-09-02T17:44:13;19.80;90.70
31038;DHT22;17702;47.590;7.666;2022-09-02T17:46:40;19.80;90.30
31038;DHT22;17702;47.590;7.666;2022-09-02T17:49:06;19.70;90.20
31038;DHT22;17702;47.590;7.666;2022-09-02T17:51:32;19.80;90.40
31038;DHT22;17702;47.590;7.666;2022-09-02T17:53:58;19.80;89.30
31038;DHT22;17702;47.590;7.666;2022-09-02T18:08:19;19.50;90.40
31038;DHT22;17702;47.590;7.666;2022-09-02T18:10:55;19.40;90.80
31038;DHT22;17702;47.590;7.666;2022-09-02T18:13:26;19.50;91.00
31038;DHT22;17702;47.590;7.666;2022-09-02T18:19:08;19.40;90.80
31038;DHT22;17702;47.590;7.666;2022-09-02T18:27:43;19.30;90.30
31038;DHT22;17702;47.590;7.666;2022-09-02T18:30:26;19.30;90.60
31038;DHT22;17702;47.590;7.666;2022-09-02T18:39:01;19.20;90.30
31038;DHT22;17702;47.590;7.666;2022-09-02T18:44:38;19.20;90.30